sensor_id;sensor_type;location;lat;lon;timestamp;pressure;altitude;pressure_sealevel;temperature;humidity
71903;BME280;59778;50.310;18.780;2022-11-12T00:00:48;100425.81;;;5.32;95.34
71903;BME280;59778;50.310;18.780;2022-11-12T00:16:09;100434.34;;;5.26;93.78
71903;BME280;59778;50.310;18.780;2022-11-12T00:31:30;100444.66;;;5.20;91.87
71903;BME280;59778;50.310;18.780;2022-11-12T00:46:52;100441.19;;;5.18;92.41
71903;BME280;59778;50.310;18.780;2022-11-12T01:02:13;100445.78;;;4.94;93.22
71903;BME280;59778;50.310;18.780;2022-11-12T01:17:34;100446.31;;;4.64;91.35
71903;BME280;59778;50.310;18.780;2022-11-12T01:32:55;100440.84;;;4.42;92.36
71903;BME280;59778;50.310;18.780;2022-11-12T01:48:36;100444.22;;;4.33;90.67
71903;BME280;59778;50.310;18.780;2022-11-12T02:03:58;100447.00;;;4.08;95.10
71903;BME280;59778;50.310;18.780;2022-11-12T02:19:19;100432.31;;;4.01;92.97
71903;BME280;59778;50.310;18.780;2022-11-12T02:34:40;100438.59;;;3.76;94.91
71903;BME280;59778;50.310;18.780;2022-11-12T02:50:02;100449.28;;;3.65;94.66
71903;BME280;59778;50.310;18.780;2022-11-12T03:05:28;100443.50;;;3.58;92.11
71903;BME280;59778;50.310;18.780;2022-11-12T03:20:50;100456.63;;;3.50;92.78
71903;BME280;59778;50.310;18.780;2022-11-12T03:36:11;100446.84;;;3.37;89.95
71903;BME280;59778;50.310;18.780;2022-11-12T03:51:32;100425.69;;;3.32;89.75
71903;BME280;59778;50.310;18.780;2022-11-12T04:06:54;100422.34;;;3.28;89.80
71903;BME280;59778;50.310;18.780;2022-11-12T04:22:34;100426.44;;;3.21;90.59
71903;BME280;59778;50.310;18.780;2022-11-12T04:37:55;100425.16;;;3.14;89.69
71903;BME280;59778;50.310;18.780;2022-11-12T04:53:16;100410.47;;;2.95;90.45
71903;BME280;59778;50.310;18.780;2022-11-12T05:08:37;100420.09;;;2.84;89.94
71903;BME280;59778;50.310;18.780;2022-11-12T05:23:58;100413.91;;;2.84;89.85
71903;BME280;59778;50.310;18.780;2022-11-12T05:39:20;100425.00;;;2.65;91.02
71903;BME280;59778;50.310;18.780;2022-11-12T05:54:43;100444.53;;;2.67;90.07
71903;BME280;59778;50.310;18.780;2022-11-12T06:10:04;100453.25;;;2.71;89.34
71903;BME280;59778;50.310;18.780;2022-11-12T06:25:26;100465.69;;;2.72;90.39
71903;BME280;59778;50.310;18.780;2022-11-12T06:40:47;100478.81;;;2.89;91.94
71903;BME280;59778;50.310;18.780;2022-11-12T06:56:08;100485.28;;;3.24;92.67
71903;BME280;59778;50.310;18.780;2022-11-12T07:11:29;100491.44;;;4.01;94.06
71903;BME280;59778;50.310;18.780;2022-11-12T07:26:50;100486.00;;;5.08;96.28
71903;BME280;59778;50.310;18.780;2022-11-12T07:42:11;100471.09;;;6.27;93.40
71903;BME280;59778;50.310;18.780;2022-11-12T07:57:33;100480.47;;;6.86;90.79
71903;BME280;59778;50.310;18.780;2022-11-12T08:12:56;100496.56;;;7.50;89.50
71903;BME280;59778;50.310;18.780;2022-11-12T08:28:18;100504.94;;;8.38;85.52
71903;BME280;59778;50.310;18.780;2022-11-12T08:43:40;100505.31;;;8.92;82.22
71903;BME280;59778;50.310;18.780;2022-11-12T08:59:02;100508.91;;;9.68;80.25
71903;BME280;59778;50.310;18.780;2022-11-12T09:14:23;100505.06;;;10.08;74.66
71903;BME280;59778;50.310;18.780;2022-11-12T09:29:44;100496.06;;;10.89;73.18
71903;BME280;59778;50.310;18.780;2022-11-12T09:45:24;100495.75;;;11.53;69.51
71903;BME280;59778;50.310;18.780;2022-11-12T10:16:48;100483.47;;;12.35;65.97
71903;BME280;59778;50.310;18.780;2022-11-12T10:32:16;100482.44;;;13.02;64.81
71903;BME280;59778;50.310;18.780;2022-11-12T10:47:37;100476.03;;;13.27;64.63
71903;BME280;59778;50.310;18.780;2022-11-12T11:03:18;100473.88;;;13.94;61.92
71903;BME280;59778;50.310;18.780;2022-11-12T11:18:45;100465.78;;;14.08;62.28
71903;BME280;59778;50.310;18.780;2022-11-12T11:34:24;100461.53;;;14.06;60.42
71903;BME280;59778;50.310;18.780;2022-11-12T11:50:14;100451.03;;;14.26;59.72
71903;BME280;59778;50.310;18.780;2022-11-12T12:05:52;100452.75;;;14.88;57.11
71903;BME280;59778;50.310;18.780;2022-11-12T12:21:20;100433.47;;;14.59;57.83
71903;BME280;59778;50.310;18.780;2022-11-12T12:36:44;100430.94;;;15.03;56.53
71903;BME280;59778;50.310;18.780;2022-11-12T12:52:11;100413.16;;;15.74;55.25
71903;BME280;59778;50.310;18.780;2022-11-12T13:07:39;100406.75;;;14.69;55.78
71903;BME280;59778;50.310;18.780;2022-11-12T13:23:03;100397.03;;;15.64;53.56
71903;BME280;59778;50.310;18.780;2022-11-12T13:38:25;100387.66;;;15.21;54.29
71903;BME280;59778;50.310;18.780;2022-11-12T13:53:46;100400.31;;;15.22;52.82
71903;BME280;59778;50.310;18.780;2022-11-12T14:25:13;100372.41;;;14.05;56.27
71903;BME280;59778;50.310;18.780;2022-11-12T14:40:45;100378.00;;;13.73;57.79
71903;BME280;59778;50.310;18.780;2022-11-12T14:56:18;100375.72;;;12.48;63.16
71903;BME280;59778;50.310;18.780;2022-11-12T15:11:45;100374.56;;;11.93;64.89
71903;BME280;59778;50.310;18.780;2022-11-12T15:27:47;100383.03;;;11.04;67.28
71903;BME280;59778;50.310;18.780;2022-11-12T15:43:21;100373.88;;;9.89;70.42
71903;BME280;59778;50.310;18.780;2022-11-12T15:58:43;100398.38;;;8.96;76.21
71903;BME280;59778;50.310;18.780;2022-11-12T16:14:08;100409.03;;;8.31;79.04
71903;BME280;59778;50.310;18.780;2022-11-12T16:29:30;100415.31;;;7.82;80.30
71903;BME280;59778;50.310;18.780;2022-11-12T16:44:51;100408.56;;;7.36;81.35
71903;BME280;59778;50.310;18.780;2022-11-12T17:00:15;100419.28;;;6.96;82.18
71903;BME280;59778;50.310;18.780;2022-11-12T17:15:36;100425.84;;;6.62;85.05
71903;BME280;59778;50.310;18.780;2022-11-12T17:31:21;100421.31;;;6.31;82.20
71903;BME280;59778;50.310;18.780;2022-11-12T17:46:44;100410.84;;;5.94;89.86
71903;BME280;59778;50.310;18.780;2022-11-12T18:02:10;100413.53;;;5.94;87.12
71903;BME280;59778;50.310;18.780;2022-11-12T18:17:32;100412.06;;;5.90;86.64
71903;BME280;59778;50.310;18.780;2022-11-12T18:32:54;100410.50;;;5.88;89.00
71903;BME280;59778;50.310;18.780;2022-11-12T18:48:15;100419.44;;;5.88;94.61
71903;BME280;59778;50.310;18.780;2022-11-12T19:03:36;100443.81;;;5.98;91.18
71903;BME280;59778;50.310;18.780;2022-11-12T19:18:58;100440.63;;;5.93;98.09
71903;BME280;59778;50.310;18.780;2022-11-12T19:34:19;100446.59;;;6.19;98.77
71903;BME280;59778;50.310;18.780;2022-11-12T19:49:40;100464.72;;;6.28;100.00
71903;BME280;59778;50.310;18.780;2022-11-12T20:05:01;100462.53;;;6.22;100.00
71903;BME280;59778;50.310;18.780;2022-11-12T20:20:23;100470.59;;;6.33;100.00
71903;BME280;59778;50.310;18.780;2022-11-12T20:35:44;100476.16;;;6.09;100.00
71903;BME280;59778;50.310;18.780;2022-11-12T20:51:13;100493.09;;;6.11;100.00
71903;BME280;59778;50.310;18.780;2022-11-12T21:06:34;100484.41;;;6.50;100.00
71903;BME280;59778;50.310;18.780;2022-11-12T21:21:55;100479.00;;;6.50;100.00
71903;BME280;59778;50.310;18.780;2022-11-12T21:37:17;100485.13;;;6.52;100.00
71903;BME280;59778;50.310;18.780;2022-11-12T21:52:39;100463.19;;;6.46;100.00
71903;BME280;59778;50.310;18.780;2022-11-12T22:08:02;100476.88;;;6.65;100.00
71903;BME280;59778;50.310;18.780;2022-11-12T22:23:23;100460.72;;;6.86;100.00
71903;BME280;59778;50.310;18.780;2022-11-12T22:38:45;100463.31;;;6.76;100.00
71903;BME280;59778;50.310;18.780;2022-11-12T22:54:06;100458.28;;;6.51;100.00
71903;BME280;59778;50.310;18.780;2022-11-12T23:09:30;100453.19;;;6.26;100.00
71903;BME280;59778;50.310;18.780;2022-11-12T23:24:51;100439.53;;;5.84;100.00
71903;BME280;59778;50.310;18.780;2022-11-12T23:40:12;100445.13;;;5.81;100.00
71903;BME280;59778;50.310;18.780;2022-11-12T23:55:34;100450.16;;;5.86;100.00
